createdAt,value
2018-02-20T00:01:03.530Z,16.80
2018-02-20T00:03:31.107Z,16.00
2018-02-20T00:05:58.676Z,18.73
2018-02-20T00:08:26.282Z,18.33
2018-02-20T00:10:53.855Z,18.47
2018-02-20T00:13:21.417Z,17.03
2018-02-20T00:15:48.989Z,17.20
2018-02-20T00:18:16.554Z,19.50
2018-02-20T00:20:44.140Z,17.70
2018-02-20T00:23:11.710Z,18.60
2018-02-20T00:25:39.328Z,17.70
2018-02-20T00:28:06.896Z,19.30
2018-02-20T00:30:34.468Z,18.27
2018-02-20T00:33:02.044Z,18.30
2018-02-20T00:35:29.608Z,19.73
2018-02-20T00:37:57.186Z,17.17
2018-02-20T00:40:24.750Z,18.20
2018-02-20T00:42:52.363Z,18.30
2018-02-20T00:45:19.934Z,19.37
2018-02-20T00:47:47.503Z,20.70
2018-02-20T00:50:15.084Z,19.43
2018-02-20T00:52:42.649Z,19.47
2018-02-20T00:55:10.217Z,18.30
2018-02-20T00:57:37.789Z,18.70
2018-02-20T01:00:05.407Z,19.13
2018-02-20T01:02:32.973Z,18.50
2018-02-20T01:05:00.538Z,18.10
2018-02-20T01:07:28.110Z,20.07
2018-02-20T01:09:55.655Z,18.13
2018-02-20T01:12:23.227Z,19.47
2018-02-20T01:14:50.794Z,19.47
2018-02-20T01:17:18.404Z,19.87
2018-02-20T01:19:45.971Z,20.03
2018-02-20T01:22:13.545Z,20.43
2018-02-20T01:24:41.123Z,19.93
2018-02-20T01:27:08.692Z,19.20
2018-02-20T01:29:36.266Z,21.60
2018-02-20T01:32:03.830Z,21.47
2018-02-20T01:34:31.442Z,19.33
2018-02-20T01:36:58.991Z,19.60
2018-02-20T01:39:26.558Z,22.27
2018-02-20T01:41:54.134Z,20.47
2018-02-20T01:44:21.710Z,20.50
2018-02-20T01:46:49.310Z,19.47
2018-02-20T01:49:16.879Z,21.60
2018-02-20T01:51:44.512Z,20.37
2018-02-20T01:54:12.077Z,21.10
2018-02-20T01:56:39.719Z,20.80
2018-02-20T01:59:07.297Z,20.80
2018-02-20T02:01:34.926Z,22.83
2018-02-20T02:04:02.499Z,20.77
2018-02-20T02:06:30.123Z,21.17
2018-02-20T02:08:57.751Z,20.07
2018-02-20T02:11:25.326Z,20.70
2018-02-20T02:13:52.892Z,22.00
2018-02-20T02:16:20.466Z,20.67
2018-02-20T02:18:48.109Z,19.40
2018-02-20T02:21:15.754Z,20.97
2018-02-20T02:23:43.320Z,22.60
2018-02-20T02:26:10.951Z,21.37
2018-02-20T02:28:38.601Z,20.23
2018-02-20T02:31:06.184Z,19.80
2018-02-20T02:33:33.768Z,20.40
2018-02-20T02:36:01.385Z,18.10
2018-02-20T02:38:29.203Z,17.97
2018-02-20T02:40:56.778Z,18.90
2018-02-20T02:43:24.485Z,19.57
2018-02-20T02:45:52.116Z,19.97
2018-02-20T02:48:19.756Z,19.30
2018-02-20T02:50:47.338Z,18.87
2018-02-20T02:53:14.915Z,17.90
2018-02-20T02:55:42.499Z,18.30
2018-02-20T02:58:10.074Z,17.97
2018-02-20T03:00:37.698Z,18.90
2018-02-20T03:03:05.299Z,19.50
2018-02-20T03:05:32.868Z,18.83
2018-02-20T03:08:00.430Z,18.97
2018-02-20T03:10:27.991Z,21.53
2018-02-20T03:12:55.566Z,20.00
2018-02-20T03:15:23.133Z,22.67
2018-02-20T03:17:50.810Z,21.07
2018-02-20T03:20:18.439Z,21.23
2018-02-20T03:22:46.010Z,21.37
2018-02-20T03:25:13.595Z,20.87
2018-02-20T03:27:41.162Z,18.13
2018-02-20T03:30:08.955Z,25.37
2018-02-20T03:32:36.597Z,20.67
2018-02-20T03:35:04.212Z,19.43
2018-02-20T03:37:31.800Z,19.60
2018-02-20T03:39:59.374Z,18.17
2018-02-20T03:42:27.015Z,18.70
2018-02-20T03:44:54.587Z,17.60
2018-02-20T03:47:22.175Z,18.67
2018-02-20T03:49:49.742Z,18.70
2018-02-20T03:52:17.373Z,18.07
2018-02-20T03:54:44.945Z,17.10
2018-02-20T03:57:12.514Z,19.07
2018-02-20T03:59:40.158Z,16.70
2018-02-20T04:02:07.731Z,17.97
2018-02-20T04:04:35.366Z,17.70
2018-02-20T04:07:02.994Z,18.23
2018-02-20T04:09:30.621Z,16.53
2018-02-20T04:11:58.530Z,16.20
2018-02-20T04:14:26.111Z,17.33
2018-02-20T04:16:53.922Z,14.93
2018-02-20T04:19:21.512Z,16.07
2018-02-20T04:21:49.115Z,15.67
2018-02-20T04:24:17.078Z,16.03
2018-02-20T04:26:44.730Z,14.77
2018-02-20T04:29:12.334Z,15.77
2018-02-20T04:31:39.934Z,14.40
2018-02-20T04:34:07.519Z,15.70
2018-02-20T04:36:35.067Z,14.10
2018-02-20T04:39:02.643Z,15.50
2018-02-20T04:41:30.215Z,15.03
2018-02-20T04:43:57.851Z,16.27
2018-02-20T04:46:25.426Z,13.53
2018-02-20T04:48:53.075Z,15.60
2018-02-20T04:51:20.650Z,13.77
2018-02-20T04:53:48.221Z,11.87
2018-02-20T04:56:15.858Z,14.10
2018-02-20T04:58:43.493Z,15.00
2018-02-20T05:01:20.570Z,14.13
2018-02-20T05:03:48.155Z,12.93
2018-02-20T05:06:15.792Z,13.57
2018-02-20T05:08:43.375Z,11.97
2018-02-20T05:11:10.943Z,12.60
2018-02-20T05:13:38.571Z,14.10
2018-02-20T05:16:06.155Z,12.17
2018-02-20T05:18:33.736Z,12.80
2018-02-20T05:21:01.314Z,11.63
2018-02-20T05:23:28.883Z,11.80
2018-02-20T05:25:56.510Z,11.47
2018-02-20T05:28:24.114Z,10.97
2018-02-20T05:30:51.673Z,11.13
2018-02-20T05:33:19.247Z,11.30
2018-02-20T05:35:46.809Z,9.50
2018-02-20T05:38:14.449Z,14.60
2018-02-20T05:40:42.028Z,13.80
2018-02-20T05:43:09.608Z,10.70
2018-02-20T05:45:37.195Z,10.13
2018-02-20T05:48:04.820Z,9.80
2018-02-20T05:50:32.469Z,10.80
2018-02-20T05:53:00.042Z,10.87
2018-02-20T05:55:27.627Z,10.03
2018-02-20T05:57:55.231Z,12.60
2018-02-20T06:00:22.827Z,10.93
2018-02-20T06:02:50.450Z,10.93
2018-02-20T06:05:18.096Z,10.27
2018-02-20T06:07:45.670Z,10.67
2018-02-20T06:10:13.251Z,10.53
2018-02-20T06:12:40.826Z,11.30
2018-02-20T06:15:08.458Z,11.23
2018-02-20T06:17:36.043Z,11.23
2018-02-20T06:20:03.637Z,11.90
2018-02-20T06:22:31.225Z,11.27
2018-02-20T06:24:58.800Z,13.30
2018-02-20T06:27:26.440Z,12.00
2018-02-20T06:29:54.072Z,11.10
2018-02-20T06:32:21.700Z,13.97
2018-02-20T06:34:49.289Z,10.00
2018-02-20T06:37:16.854Z,12.10
2018-02-20T06:39:44.429Z,11.50
2018-02-20T06:42:12.000Z,10.47
2018-02-20T06:44:39.628Z,11.87
2018-02-20T06:47:07.205Z,10.20
2018-02-20T06:49:34.765Z,11.30
2018-02-20T06:52:02.340Z,15.43
2018-02-20T06:54:29.909Z,10.70
2018-02-20T06:56:57.498Z,11.57
2018-02-20T06:59:25.074Z,10.30
2018-02-20T07:01:52.682Z,9.60
2018-02-20T07:04:20.251Z,11.00
2018-02-20T07:06:47.912Z,9.90
2018-02-20T07:09:15.490Z,10.47
2018-02-20T07:11:43.057Z,10.97
2018-02-20T07:14:10.693Z,9.23
2018-02-20T07:16:38.318Z,9.20
2018-02-20T07:19:05.942Z,9.90
2018-02-20T07:21:33.570Z,10.23
2018-02-20T07:24:01.133Z,10.33
2018-02-20T07:26:28.768Z,11.27
2018-02-20T07:28:56.406Z,11.00
2018-02-20T07:31:23.977Z,10.33
2018-02-20T07:33:51.542Z,9.17
2018-02-20T07:36:19.182Z,9.17
2018-02-20T07:38:46.785Z,8.77
2018-02-20T07:41:14.356Z,8.43
2018-02-20T07:43:41.932Z,8.30
2018-02-20T07:46:09.494Z,8.20
2018-02-20T07:48:37.058Z,7.83
2018-02-20T07:51:04.687Z,9.10
2018-02-20T07:53:32.307Z,8.40
2018-02-20T07:55:59.877Z,7.70
2018-02-20T07:58:27.442Z,7.20
2018-02-20T08:00:55.013Z,8.70
2018-02-20T08:03:22.575Z,7.33
2018-02-20T08:05:50.150Z,7.63
2018-02-20T08:08:17.774Z,8.27
2018-02-20T08:10:45.392Z,7.53
2018-02-20T08:13:12.938Z,7.60
2018-02-20T08:15:40.563Z,12.87
2018-02-20T08:18:08.139Z,10.17
2018-02-20T08:20:35.710Z,14.80
2018-02-20T08:23:03.282Z,7.77
2018-02-20T08:25:30.931Z,5.70
2018-02-20T08:27:58.618Z,6.53
2018-02-20T08:30:26.243Z,5.87
2018-02-20T08:32:53.874Z,7.37
2018-02-20T08:35:21.431Z,4.97
2018-02-20T08:37:48.991Z,5.00
2018-02-20T08:40:16.612Z,4.83
2018-02-20T08:42:44.175Z,4.20
2018-02-20T08:45:11.721Z,3.60
2018-02-20T08:47:39.300Z,4.60
2018-02-20T08:50:06.845Z,4.13
2018-02-20T08:52:34.421Z,5.87
2018-02-20T08:55:02.051Z,5.40
2018-02-20T08:57:29.672Z,4.60
2018-02-20T08:59:57.303Z,4.53
2018-02-20T09:02:24.862Z,3.30
2018-02-20T09:04:52.487Z,3.83
2018-02-20T09:07:20.108Z,3.67
2018-02-20T09:09:47.723Z,3.60
2018-02-20T09:12:15.271Z,4.40
2018-02-20T09:14:42.851Z,3.60
2018-02-20T09:17:10.464Z,4.10
2018-02-20T09:19:38.029Z,3.80
2018-02-20T09:22:05.629Z,3.40
2018-02-20T09:24:33.255Z,4.50
2018-02-20T09:27:00.866Z,2.70
2018-02-20T09:29:28.481Z,2.80
2018-02-20T09:31:56.117Z,3.97
2018-02-20T09:34:23.693Z,3.50
2018-02-20T09:36:51.320Z,4.20
2018-02-20T09:39:18.971Z,4.80
2018-02-20T09:41:46.532Z,6.10
2018-02-20T09:44:14.284Z,2.83
2018-02-20T09:46:41.846Z,3.53
2018-02-20T09:49:09.419Z,4.27
2018-02-20T09:51:37.073Z,4.30
2018-02-20T09:54:04.683Z,4.27
2018-02-20T09:56:32.246Z,3.47
2018-02-20T09:58:59.816Z,3.40
2018-02-20T10:01:27.502Z,2.67
2018-02-20T10:03:55.177Z,2.43
2018-02-20T10:06:22.727Z,2.00
2018-02-20T10:08:50.302Z,3.33
2018-02-20T10:11:17.873Z,2.53
2018-02-20T10:13:45.516Z,1.97
2018-02-20T10:16:13.093Z,4.03
2018-02-20T10:18:40.724Z,3.10
2018-02-20T10:21:08.347Z,2.10
2018-02-20T10:23:35.972Z,2.80
2018-02-20T10:26:03.557Z,3.73
2018-02-20T10:28:31.183Z,2.33
2018-02-20T10:30:58.759Z,3.73
2018-02-20T10:33:26.324Z,2.60
2018-02-20T10:35:54.010Z,2.70
2018-02-20T10:38:21.585Z,3.13
2018-02-20T10:40:49.155Z,3.03
2018-02-20T10:43:16.732Z,2.83
2018-02-20T10:45:44.291Z,2.43
2018-02-20T10:48:11.862Z,2.40
2018-02-20T10:50:39.443Z,2.50
2018-02-20T10:53:07.104Z,2.27
2018-02-20T10:55:34.738Z,2.50
2018-02-20T10:58:02.318Z,2.00
2018-02-20T11:00:29.894Z,2.60
2018-02-20T11:02:57.454Z,2.47
2018-02-20T11:05:25.102Z,2.63
2018-02-20T11:07:52.666Z,2.13
2018-02-20T11:10:20.287Z,2.43
2018-02-20T11:12:47.846Z,2.90
2018-02-20T11:15:15.416Z,3.57
2018-02-20T11:17:42.986Z,2.80
2018-02-20T11:20:10.611Z,3.40
2018-02-20T11:22:38.180Z,3.00
2018-02-20T11:25:05.798Z,3.37
2018-02-20T11:27:33.427Z,3.13
2018-02-20T11:30:01.051Z,2.93
2018-02-20T11:32:28.615Z,2.57
2018-02-20T11:34:56.260Z,3.47
2018-02-20T11:37:23.826Z,3.87
2018-02-20T11:40:02.161Z,4.67
2018-02-20T11:42:30.323Z,4.70
2018-02-20T11:44:58.027Z,5.60
2018-02-20T11:47:25.602Z,5.70
2018-02-20T11:49:53.172Z,5.57
2018-02-20T11:52:20.758Z,5.87
2018-02-20T11:54:48.358Z,5.10
2018-02-20T11:57:15.940Z,6.33
2018-02-20T11:59:43.517Z,6.10
2018-02-20T12:02:11.213Z,6.30
2018-02-20T12:04:39.040Z,5.20
2018-02-20T12:07:06.942Z,5.50
2018-02-20T12:09:34.614Z,5.07
2018-02-20T12:12:02.237Z,5.37
2018-02-20T12:14:29.893Z,5.53
2018-02-20T12:16:57.465Z,5.87
2018-02-20T12:19:25.151Z,5.30
2018-02-20T12:21:52.723Z,5.20
2018-02-20T12:24:20.272Z,5.50
2018-02-20T12:26:47.896Z,5.37
2018-02-20T12:29:15.603Z,5.07
2018-02-20T12:31:43.244Z,5.03
2018-02-20T12:34:10.886Z,4.30
2018-02-20T12:36:38.526Z,5.07
2018-02-20T12:39:06.110Z,5.77
2018-02-20T12:41:33.679Z,5.10
2018-02-20T12:44:01.250Z,6.13
2018-02-20T12:46:28.886Z,5.10
2018-02-20T12:48:56.476Z,4.33
2018-02-20T12:51:24.050Z,5.90
2018-02-20T12:53:51.727Z,4.73
2018-02-20T12:56:19.302Z,6.73
2018-02-20T12:58:46.861Z,5.53
2018-02-20T13:01:14.510Z,5.93
2018-02-20T13:03:42.082Z,5.17
2018-02-20T13:06:09.710Z,6.20
2018-02-20T13:08:37.340Z,6.13
2018-02-20T13:11:04.970Z,5.20
2018-02-20T13:13:32.595Z,4.83
2018-02-20T13:16:00.154Z,5.63
2018-02-20T13:18:27.724Z,5.70
2018-02-20T13:23:53.594Z,4.57
2018-02-20T13:26:21.164Z,5.20
2018-02-20T13:28:48.735Z,5.63
2018-02-20T13:31:16.309Z,5.77
2018-02-20T13:33:43.891Z,5.70
2018-02-20T13:36:11.459Z,5.50
2018-02-20T13:38:39.058Z,4.87
2018-02-20T13:41:06.633Z,4.20
2018-02-20T13:43:34.202Z,5.00
2018-02-20T13:46:01.827Z,5.10
2018-02-20T13:48:29.410Z,4.87
2018-02-20T13:50:57.033Z,5.17
2018-02-20T13:53:24.595Z,5.13
2018-02-20T13:55:52.862Z,4.40
2018-02-20T13:58:20.418Z,5.70
2018-02-20T14:00:48.074Z,6.30
2018-02-20T14:03:15.635Z,6.27
2018-02-20T14:05:43.347Z,4.40
2018-02-20T14:08:10.914Z,5.60
2018-02-20T14:10:38.474Z,5.90
2018-02-20T14:13:06.054Z,4.87
2018-02-20T14:15:33.675Z,5.70
2018-02-20T14:18:01.323Z,5.20
2018-02-20T14:20:28.886Z,4.30
2018-02-20T14:22:56.486Z,4.63
2018-02-20T14:25:24.064Z,4.00
2018-02-20T14:27:51.619Z,4.40
2018-02-20T14:30:19.215Z,5.17
2018-02-20T14:32:46.866Z,4.03
2018-02-20T14:37:48.304Z,4.33
2018-02-20T14:40:15.858Z,5.63
2018-02-20T14:42:43.441Z,6.03
2018-02-20T14:45:11.154Z,6.20
2018-02-20T14:47:38.941Z,7.00
2018-02-20T14:50:06.515Z,5.63
2018-02-20T14:52:34.154Z,6.30
2018-02-20T14:55:01.724Z,5.60
2018-02-20T14:57:29.351Z,4.93
2018-02-20T14:59:57.011Z,5.33
2018-02-20T15:02:25.493Z,5.47
2018-02-20T15:04:53.606Z,5.63
2018-02-20T15:07:21.184Z,4.73
2018-02-20T15:09:48.807Z,6.80
2018-02-20T15:12:16.479Z,3.87
2018-02-20T15:14:44.042Z,4.60
2018-02-20T15:17:11.633Z,4.10
2018-02-20T15:19:39.210Z,4.10
2018-02-20T15:22:06.774Z,3.73
2018-02-20T15:24:34.398Z,3.80
2018-02-20T15:27:01.960Z,5.77
2018-02-20T15:29:29.585Z,4.20
2018-02-20T15:31:57.230Z,6.97
2018-02-20T15:34:25.154Z,3.90
2018-02-20T15:36:52.774Z,3.60
2018-02-20T15:39:20.422Z,4.13
2018-02-20T15:41:47.987Z,4.40
2018-02-20T15:44:15.621Z,4.40
2018-02-20T15:46:43.195Z,4.97
2018-02-20T15:49:10.869Z,4.57
2018-02-20T15:51:38.423Z,5.37
2018-02-20T15:54:05.980Z,4.73
2018-02-20T15:56:33.608Z,4.33
2018-02-20T15:59:01.247Z,7.97
2018-02-20T16:01:28.872Z,4.97
2018-02-20T16:03:56.430Z,4.83
2018-02-20T16:06:24.110Z,5.20
2018-02-20T16:08:51.653Z,4.53
2018-02-20T16:11:19.242Z,4.83
2018-02-20T16:13:46.924Z,4.03
2018-02-20T16:16:15.034Z,5.00
2018-02-20T16:18:42.672Z,4.87
2018-02-20T16:21:10.305Z,5.50
2018-02-20T16:26:11.623Z,3.83
2018-02-20T16:28:39.288Z,3.97
2018-02-20T16:31:06.859Z,4.30
2018-02-20T16:33:34.618Z,94.03
2018-02-20T16:36:02.180Z,4.20
2018-02-20T16:38:29.831Z,14.63
2018-02-20T16:40:57.454Z,7.87
2018-02-20T16:43:25.095Z,7.00
2018-02-20T16:45:53.498Z,8.00
2018-02-20T16:48:21.128Z,11.73
2018-02-20T16:50:48.715Z,19.93
2018-02-20T16:53:16.367Z,20.40
2018-02-20T16:55:44.037Z,4.27
2018-02-20T16:58:11.615Z,3.70
2018-02-20T17:00:39.175Z,4.27
2018-02-20T17:03:06.781Z,6.23
2018-02-20T17:05:34.342Z,4.67
2018-02-20T17:08:01.911Z,4.10
2018-02-20T17:10:29.471Z,4.67
2018-02-20T17:12:57.224Z,4.33
2018-02-20T17:15:25.290Z,4.93
2018-02-20T17:17:52.971Z,4.63
2018-02-20T17:20:20.564Z,7.80
2018-02-20T17:22:48.132Z,9.33
2018-02-20T17:25:15.712Z,6.87
2018-02-20T17:27:43.357Z,4.77
2018-02-20T17:30:10.947Z,4.23
2018-02-20T17:32:38.531Z,5.50
2018-02-20T17:35:06.143Z,7.80
2018-02-20T17:37:33.724Z,6.43
2018-02-20T17:40:01.361Z,4.70
2018-02-20T17:42:29.001Z,4.63
2018-02-20T17:44:56.621Z,4.90
2018-02-20T17:47:24.282Z,4.90
2018-02-20T17:49:51.867Z,4.90
2018-02-20T17:52:19.500Z,4.93
2018-02-20T17:54:47.131Z,5.00
2018-02-20T17:57:14.698Z,4.40
2018-02-20T17:59:42.260Z,4.07
2018-02-20T18:02:09.827Z,4.57
2018-02-20T18:04:37.405Z,7.60
2018-02-20T18:07:05.028Z,4.93
2018-02-20T18:09:32.605Z,3.67
2018-02-20T18:12:00.185Z,6.40
2018-02-20T18:14:27.807Z,5.17
2018-02-20T18:16:55.385Z,5.87
2018-02-20T18:19:22.952Z,3.83
2018-02-20T18:21:50.531Z,4.80
2018-02-20T18:24:18.163Z,4.70
2018-02-20T18:26:45.728Z,5.10
2018-02-20T18:29:13.304Z,4.57
2018-02-20T18:31:40.918Z,5.83
2018-02-20T18:34:08.492Z,8.37
2018-02-20T18:36:36.124Z,9.60
2018-02-20T18:39:03.763Z,5.83
2018-02-20T18:41:31.431Z,5.10
2018-02-20T18:43:58.997Z,6.50
2018-02-20T18:46:26.563Z,6.27
2018-02-20T18:48:54.208Z,7.10
2018-02-20T18:51:21.798Z,15.30
2018-02-20T18:53:49.354Z,5.77
2018-02-20T18:56:16.923Z,4.93
2018-02-20T18:58:44.555Z,5.37
2018-02-20T19:01:12.180Z,5.30
2018-02-20T19:03:39.747Z,4.97
2018-02-20T19:06:07.319Z,4.77
2018-02-20T19:08:34.900Z,4.50
2018-02-20T19:11:02.568Z,5.97
2018-02-20T19:13:30.189Z,11.77
2018-02-20T19:15:57.827Z,4.73
2018-02-20T19:18:25.504Z,5.60
2018-02-20T19:20:53.067Z,5.20
2018-02-20T19:23:20.697Z,5.07
2018-02-20T19:25:48.268Z,5.87
2018-02-20T19:28:15.887Z,4.97
2018-02-20T19:30:43.466Z,5.97
2018-02-20T19:33:11.068Z,5.13
2018-02-20T19:35:38.714Z,5.10
2018-02-20T19:38:06.279Z,6.40
2018-02-20T19:40:33.876Z,4.20
2018-02-20T19:43:01.463Z,5.20
2018-02-20T19:45:29.094Z,5.80
2018-02-20T19:47:56.667Z,6.50
2018-02-20T19:50:24.234Z,5.90
2018-02-20T19:52:51.862Z,5.97
2018-02-20T19:55:19.439Z,5.17
2018-02-20T19:57:47.084Z,6.70
2018-02-20T20:00:14.795Z,6.53
2018-02-20T20:02:42.363Z,8.13
2018-02-20T20:05:09.992Z,7.33
2018-02-20T20:07:37.568Z,7.80
2018-02-20T20:10:05.199Z,12.23
2018-02-20T20:12:32.830Z,8.87
2018-02-20T20:15:00.396Z,6.53
2018-02-20T20:17:27.975Z,7.83
2018-02-20T20:19:55.627Z,7.10
2018-02-20T20:22:23.197Z,8.47
2018-02-20T20:24:50.905Z,7.97
2018-02-20T20:27:18.583Z,7.20
2018-02-20T20:29:46.191Z,8.27
2018-02-20T20:32:13.828Z,8.03
2018-02-20T20:34:41.470Z,9.20
2018-02-20T20:37:09.097Z,8.53
2018-02-20T20:39:36.667Z,8.70
2018-02-20T20:42:04.231Z,9.20
2018-02-20T20:44:31.807Z,9.07
2018-02-20T20:46:59.431Z,9.37
2018-02-20T20:49:27.053Z,9.67
2018-02-20T20:51:54.676Z,9.80
2018-02-20T20:54:22.305Z,10.63
2018-02-20T20:56:49.963Z,10.07
2018-02-20T20:59:17.548Z,11.43
2018-02-20T21:01:45.174Z,8.80
2018-02-20T21:04:12.799Z,9.47
2018-02-20T21:06:40.458Z,10.63
2018-02-20T21:09:08.042Z,11.13
2018-02-20T21:11:35.616Z,11.17
2018-02-20T21:14:03.243Z,11.13
2018-02-20T21:16:30.819Z,11.60
2018-02-20T21:18:58.384Z,10.47
2018-02-20T21:21:26.014Z,11.53
2018-02-20T21:23:53.620Z,11.77
2018-02-20T21:26:21.316Z,11.40
2018-02-20T21:28:48.897Z,11.77
2018-02-20T21:31:16.528Z,11.77
2018-02-20T21:33:44.100Z,12.30
2018-02-20T21:36:11.899Z,11.50
2018-02-20T21:38:39.553Z,12.57
2018-02-20T21:41:07.160Z,13.80
2018-02-20T21:43:34.812Z,11.60
2018-02-20T21:46:02.405Z,11.40
2018-02-20T21:48:30.033Z,11.77
2018-02-20T21:50:57.659Z,12.63
2018-02-20T21:53:25.296Z,11.50
2018-02-20T21:55:52.873Z,12.80
2018-02-20T21:58:20.463Z,12.27
2018-02-20T22:00:48.085Z,11.50
2018-02-20T22:03:15.789Z,11.70
2018-02-20T22:05:43.358Z,10.80
2018-02-20T22:08:10.927Z,10.77
2018-02-20T22:10:38.570Z,10.60
2018-02-20T22:13:06.130Z,9.77
2018-02-20T22:15:33.813Z,9.83
2018-02-20T22:18:01.391Z,9.67
2018-02-20T22:20:28.962Z,11.53
2018-02-20T22:22:56.523Z,10.77
2018-02-20T22:25:24.087Z,11.90
2018-02-20T22:27:51.760Z,12.10
2018-02-20T22:30:19.392Z,11.30
2018-02-20T22:32:46.961Z,9.53
2018-02-20T22:35:14.537Z,9.00
2018-02-20T22:37:42.096Z,7.97
2018-02-20T22:40:09.750Z,8.57
2018-02-20T22:42:37.375Z,6.73
2018-02-20T22:45:04.934Z,6.07
2018-02-20T22:47:32.555Z,5.70
2018-02-20T22:50:00.116Z,5.70
2018-02-20T22:52:27.724Z,4.30
2018-02-20T22:54:55.282Z,4.83
2018-02-20T22:57:22.895Z,4.40
2018-02-20T22:59:50.476Z,3.83
2018-02-20T23:02:18.096Z,4.20
2018-02-20T23:04:45.718Z,4.27
2018-02-20T23:07:13.248Z,4.53
2018-02-20T23:09:40.811Z,4.07
2018-02-20T23:12:08.466Z,3.50
2018-02-20T23:14:36.101Z,3.93
2018-02-20T23:17:03.726Z,4.10
2018-02-20T23:19:31.278Z,4.17
2018-02-20T23:21:58.839Z,4.23
2018-02-20T23:24:26.404Z,5.00
2018-02-20T23:26:53.958Z,5.57
2018-02-20T23:29:21.617Z,5.03
2018-02-20T23:31:49.174Z,5.60
2018-02-20T23:36:58.807Z,6.03
2018-02-20T23:39:26.379Z,6.30
2018-02-20T23:41:53.954Z,7.17
2018-02-20T23:44:21.506Z,6.07
2018-02-20T23:46:49.123Z,6.70
2018-02-20T23:49:16.695Z,7.07
2018-02-20T23:51:44.243Z,5.90
2018-02-20T23:54:11.828Z,6.67
2018-02-20T23:56:39.446Z,6.40
2018-02-20T23:59:07.018Z,6.57
